createdAt,value
2022-09-05T00:00:14.861Z,15.62
2022-09-05T00:02:48.733Z,15.49
2022-09-05T00:05:24.061Z,15.53
2022-09-05T00:07:59.375Z,15.58
2022-09-05T00:11:40.414Z,15.60
2022-09-05T00:13:37.224Z,15.52
2022-09-05T00:16:15.741Z,15.60
2022-09-05T00:24:17.162Z,15.46
2022-09-05T00:24:30.624Z,15.47
2022-09-05T00:25:30.664Z,15.50
2022-09-05T00:28:03.428Z,15.46
2022-09-05T00:31:54.634Z,15.39
2022-09-05T00:34:47.282Z,15.25
2022-09-05T00:37:27.991Z,15.26
2022-09-05T00:40:09.674Z,15.25
2022-09-05T00:42:45.590Z,15.32
2022-09-05T00:45:19.527Z,15.44
2022-09-05T00:47:57.979Z,15.35
2022-09-05T00:50:37.807Z,15.32
2022-09-05T00:53:17.566Z,15.29
2022-09-05T00:55:53.135Z,15.31
2022-09-05T00:58:33.899Z,15.25
2022-09-05T01:01:20.526Z,15.32
2022-09-05T01:04:06.618Z,15.27
2022-09-05T01:06:43.712Z,15.29
2022-09-05T01:09:32.826Z,15.32
2022-09-05T01:12:04.887Z,15.30
2022-09-05T01:14:52.682Z,15.31
2022-09-05T01:17:39.536Z,15.25
2022-09-05T01:20:38.093Z,15.40
2022-09-05T01:23:49.067Z,15.26
2022-09-05T01:26:20.060Z,15.25
2022-09-05T01:29:16.801Z,15.31
2022-09-05T01:32:09.217Z,15.21
2022-09-05T01:35:01.208Z,15.29
2022-09-05T01:37:50.856Z,15.18
2022-09-05T01:40:20.565Z,15.12
2022-09-05T01:43:10.686Z,15.26
2022-09-05T01:45:46.851Z,15.23
2022-09-05T01:48:31.976Z,15.20
2022-09-05T01:51:33.105Z,15.22
2022-09-05T01:54:56.646Z,15.27
2022-09-05T01:57:41.542Z,15.31
2022-09-05T02:00:12.494Z,15.29
2022-09-05T02:03:01.480Z,15.30
2022-09-05T02:05:50.999Z,15.27
2022-09-05T02:08:34.616Z,15.29
2022-09-05T02:11:09.130Z,15.22
2022-09-05T02:13:35.571Z,15.25
2022-09-05T02:16:28.893Z,15.25
2022-09-05T02:19:10.395Z,15.23
2022-09-05T02:22:01.238Z,15.16
2022-09-05T02:24:35.784Z,15.02
2022-09-05T02:27:31.772Z,15.03
2022-09-05T02:30:14.689Z,15.08
2022-09-05T02:32:56.367Z,14.96
2022-09-05T02:36:10.874Z,14.96
2022-09-05T02:42:43.473Z,14.96
2022-09-05T02:45:14.208Z,15.03
2022-09-05T02:45:25.876Z,14.98
2022-09-05T02:48:22.706Z,15.02
2022-09-05T02:55:22.281Z,15.06
2022-09-05T02:57:39.949Z,14.98
2022-09-05T02:57:41.943Z,15.04
2022-09-05T03:00:01.609Z,15.01
2022-09-05T03:02:37.036Z,15.03
2022-09-05T03:05:38.727Z,14.96
2022-09-05T03:08:40.916Z,15.01
2022-09-05T03:11:22.262Z,14.92
2022-09-05T03:14:30.328Z,14.96
2022-09-05T03:17:05.606Z,14.81
2022-09-05T03:20:15.261Z,14.76
2022-09-05T03:23:15.945Z,14.82
2022-09-05T03:26:06.802Z,14.83
2022-09-05T03:28:57.550Z,14.88
2022-09-05T03:31:56.884Z,14.88
2022-09-05T03:34:35.372Z,14.92
2022-09-05T03:37:32.899Z,14.88
2022-09-05T03:40:21.782Z,14.83
2022-09-05T03:42:55.811Z,14.85
2022-09-05T03:45:48.142Z,14.82
2022-09-05T03:48:37.896Z,14.83
2022-09-05T03:57:04.493Z,14.81
2022-09-05T03:57:12.922Z,14.88
2022-09-05T03:58:11.920Z,14.85
2022-09-05T04:02:46.432Z,14.84
2022-09-05T04:08:16.873Z,14.84
2022-09-05T04:08:19.251Z,14.83
2022-09-05T04:09:51.091Z,14.88
2022-09-05T04:12:31.349Z,15.00
2022-09-05T04:15:06.101Z,14.93
2022-09-05T04:17:52.347Z,15.01
2022-09-05T04:20:42.770Z,15.01
2022-09-05T04:23:12.096Z,14.99
2022-09-05T04:26:16.365Z,14.98
2022-09-05T04:28:53.564Z,15.09
2022-09-05T04:31:34.342Z,15.02
2022-09-05T04:34:10.101Z,14.94
2022-09-05T04:36:38.300Z,14.93
2022-09-05T04:39:25.362Z,14.97
2022-09-05T04:42:16.282Z,14.92
2022-09-05T04:44:50.476Z,15.04
2022-09-05T04:47:31.638Z,15.14
2022-09-05T04:50:08.077Z,15.13
2022-09-05T04:53:15.599Z,15.01
2022-09-05T04:55:51.789Z,15.09
2022-09-05T04:59:18.749Z,15.09
2022-09-05T05:06:13.106Z,15.15
2022-09-05T05:06:15.110Z,15.21
2022-09-05T05:07:19.869Z,15.22
2022-09-05T05:09:51.630Z,15.26
2022-09-05T05:18:14.830Z,15.27
2022-09-05T05:18:15.463Z,15.23
2022-09-05T05:19:03.042Z,15.30
2022-09-05T05:21:31.510Z,15.35
2022-09-05T05:24:08.170Z,15.35
2022-09-05T05:27:02.692Z,15.41
2022-09-05T05:30:00.750Z,15.44
2022-09-05T05:32:45.173Z,15.51
2022-09-05T05:35:16.705Z,15.49
2022-09-05T05:37:47.687Z,15.56
2022-09-05T05:40:17.028Z,15.61
2022-09-05T05:42:44.866Z,15.68
2022-09-05T05:45:32.492Z,15.70
2022-09-05T05:48:05.805Z,15.76
2022-09-05T05:50:59.041Z,15.85
2022-09-05T05:53:52.474Z,15.89
2022-09-05T05:56:47.276Z,15.95
2022-09-05T05:59:33.096Z,16.05
2022-09-05T06:02:02.151Z,16.20
2022-09-05T06:04:55.267Z,16.21
2022-09-05T06:11:06.010Z,16.30
2022-09-05T06:14:59.034Z,16.27
2022-09-05T06:15:04.036Z,16.34
2022-09-05T06:17:19.962Z,16.39
2022-09-05T06:22:07.165Z,16.39
2022-09-05T06:23:38.615Z,16.55
2022-09-05T06:26:40.951Z,16.71
2022-09-05T06:29:47.216Z,16.79
2022-09-05T06:32:25.473Z,16.83
2022-09-05T06:35:13.781Z,16.89
2022-09-05T06:37:58.455Z,17.00
2022-09-05T06:40:27.134Z,17.02
2022-09-05T06:43:31.770Z,17.24
2022-09-05T06:46:40.879Z,17.35
2022-09-05T06:49:32.404Z,17.55
2022-09-05T06:52:28.627Z,17.66
2022-09-05T06:55:21.183Z,17.99
2022-09-05T06:58:18.952Z,18.08
2022-09-05T07:01:08.922Z,17.96
2022-09-05T07:04:31.931Z,17.92
2022-09-05T07:07:01.598Z,17.79
2022-09-05T07:09:51.159Z,17.74
2022-09-05T07:12:30.290Z,17.65
2022-09-05T07:15:31.187Z,17.95
2022-09-05T07:18:11.264Z,18.07
2022-09-05T07:21:17.136Z,18.41
2022-09-05T07:24:06.604Z,18.55
2022-09-05T07:26:54.097Z,18.71
2022-09-05T07:29:32.000Z,18.80
2022-09-05T07:31:59.645Z,19.08
2022-09-05T07:34:32.988Z,19.03
2022-09-05T07:37:15.331Z,19.23
2022-09-05T07:40:12.966Z,19.23
2022-09-05T07:43:11.522Z,19.56
2022-09-05T07:45:55.381Z,19.88
2022-09-05T07:48:29.738Z,19.65
2022-09-05T07:55:12.383Z,19.63
2022-09-05T07:56:49.150Z,19.87
2022-09-05T07:57:15.445Z,20.00
2022-09-05T07:59:28.676Z,19.82
2022-09-05T08:01:55.301Z,19.54
2022-09-05T08:04:34.957Z,19.65
2022-09-05T08:07:50.008Z,19.67
2022-09-05T08:10:30.929Z,19.89
2022-09-05T08:13:24.500Z,20.19
2022-09-05T08:16:04.311Z,20.10
2022-09-05T08:18:46.361Z,20.40
2022-09-05T08:21:39.912Z,20.35
2022-09-05T08:24:13.884Z,20.79
2022-09-05T08:26:47.108Z,20.65
2022-09-05T08:29:17.679Z,20.74
2022-09-05T08:31:52.588Z,20.84
2022-09-05T08:34:31.397Z,20.59
2022-09-05T08:37:21.425Z,20.82
2022-09-05T08:40:10.925Z,20.55
2022-09-05T08:46:36.615Z,20.66
2022-09-05T08:46:47.738Z,20.39
2022-09-05T08:48:55.640Z,20.51
2022-09-05T08:51:46.121Z,20.73
2022-09-05T08:54:37.387Z,20.67
2022-09-05T08:57:18.517Z,20.86
2022-09-05T09:00:19.681Z,21.02
2022-09-05T09:03:12.388Z,20.73
2022-09-05T09:06:13.710Z,20.95
2022-09-05T09:08:47.400Z,20.96
2022-09-05T09:11:30.907Z,21.08
2022-09-05T09:14:30.411Z,21.05
2022-09-05T09:17:00.446Z,21.13
2022-09-05T09:19:48.594Z,21.35
2022-09-05T09:22:36.969Z,21.61
2022-09-05T09:25:14.993Z,21.43
2022-09-05T09:28:47.172Z,21.59
2022-09-05T09:31:09.978Z,21.68
2022-09-05T09:34:02.841Z,21.67
2022-09-05T09:36:41.452Z,21.68
2022-09-05T09:39:38.633Z,21.82
2022-09-05T09:42:32.170Z,21.90
2022-09-05T09:45:31.355Z,21.94
2022-09-05T09:48:14.388Z,21.73
2022-09-05T09:50:58.751Z,21.65
2022-09-05T09:54:04.091Z,22.06
2022-09-05T09:56:49.179Z,22.35
2022-09-05T09:59:31.886Z,22.34
2022-09-05T10:03:09.660Z,22.09
2022-09-05T10:10:38.413Z,22.00
2022-09-05T10:10:48.844Z,22.09
2022-09-05T10:11:55.636Z,22.52
2022-09-05T10:14:50.731Z,22.54
2022-09-05T10:17:36.293Z,22.87
2022-09-05T10:20:32.045Z,22.91
2022-09-05T10:23:28.210Z,22.84
2022-09-05T10:26:24.676Z,23.11
2022-09-05T10:29:26.698Z,23.40
2022-09-05T10:34:38.084Z,23.20
2022-09-05T10:35:22.148Z,22.82
2022-09-05T10:38:14.110Z,22.87
2022-09-05T10:40:45.409Z,22.85
2022-09-05T10:43:31.562Z,23.04
2022-09-05T10:45:58.113Z,23.11
2022-09-05T10:48:38.298Z,23.12
2022-09-05T10:51:26.904Z,23.55
2022-09-05T10:54:23.869Z,23.00
2022-09-05T10:56:59.300Z,23.26
2022-09-05T11:02:20.876Z,23.04
2022-09-05T11:02:33.456Z,23.12
2022-09-05T11:05:25.708Z,23.28
2022-09-05T11:08:05.474Z,23.35
2022-09-05T11:10:44.703Z,23.41
2022-09-05T11:13:35.894Z,23.72
2022-09-05T11:16:13.461Z,22.93
2022-09-05T11:18:57.296Z,22.50
2022-09-05T11:21:32.113Z,22.66
2022-09-05T11:24:04.395Z,22.33
2022-09-05T11:26:35.660Z,22.94
2022-09-05T11:29:07.050Z,22.69
2022-09-05T11:32:11.780Z,22.50
2022-09-05T11:39:50.889Z,22.78
2022-09-05T11:40:07.553Z,23.15
2022-09-05T11:41:02.705Z,22.68
2022-09-05T11:43:51.796Z,22.72
2022-09-05T11:46:53.178Z,23.20
2022-09-05T11:49:42.278Z,23.00
2022-09-05T11:52:40.281Z,22.93
2022-09-05T11:55:26.959Z,22.63
2022-09-05T11:58:43.842Z,23.18
2022-09-05T12:01:43.127Z,23.47
2022-09-05T12:04:29.383Z,23.27
2022-09-05T12:07:31.829Z,23.47
2022-09-05T12:10:43.500Z,23.51
2022-09-05T12:13:26.508Z,23.35
2022-09-05T12:16:07.812Z,22.92
2022-09-05T12:18:42.478Z,23.33
2022-09-05T12:21:47.817Z,23.26
2022-09-05T12:25:16.809Z,23.05
2022-09-05T12:30:00.583Z,23.12
2022-09-05T12:33:56.696Z,23.41
2022-09-05T12:36:03.651Z,22.82
2022-09-05T12:41:32.940Z,22.66
2022-09-05T12:41:41.715Z,22.76
2022-09-05T12:42:11.535Z,23.14
2022-09-05T12:45:09.047Z,23.01
2022-09-05T12:48:08.707Z,22.75
2022-09-05T12:50:59.673Z,22.92
2022-09-05T12:53:35.157Z,22.96
2022-09-05T12:57:06.525Z,22.62
2022-09-05T13:02:55.635Z,22.39
2022-09-05T13:03:12.276Z,22.35
2022-09-05T13:04:41.717Z,22.58
2022-09-05T13:07:42.798Z,22.23
2022-09-05T13:13:27.439Z,22.11
2022-09-05T13:14:56.585Z,22.09
2022-09-05T13:16:03.356Z,22.16
2022-09-05T13:18:39.081Z,22.33
2022-09-05T13:21:27.055Z,22.42
2022-09-05T13:24:11.956Z,22.25
2022-09-05T13:26:43.079Z,22.11
2022-09-05T13:29:15.414Z,21.98
2022-09-05T13:38:07.998Z,22.17
2022-09-05T13:38:14.182Z,21.88
2022-09-05T13:38:16.015Z,22.03
2022-09-05T13:40:23.881Z,21.83
2022-09-05T13:43:21.714Z,22.20
2022-09-05T13:46:17.058Z,22.00
2022-09-05T13:51:51.329Z,22.59
2022-09-05T13:54:36.479Z,22.29
2022-09-05T13:57:16.324Z,21.93
2022-09-05T14:00:06.841Z,21.99
2022-09-05T14:06:45.137Z,21.44
2022-09-05T14:09:37.967Z,21.53
2022-09-05T14:12:37.266Z,21.83
2022-09-05T14:15:35.778Z,21.67
2022-09-05T14:18:18.525Z,21.80
2022-09-05T14:21:17.810Z,21.63
2022-09-05T14:23:58.280Z,21.67
2022-09-05T14:26:29.102Z,21.64
2022-09-05T14:29:05.967Z,21.58
2022-09-05T14:37:48.280Z,21.24
2022-09-05T14:37:55.417Z,21.51
2022-09-05T14:38:09.469Z,21.23
2022-09-05T14:41:09.442Z,21.48
2022-09-05T14:44:13.458Z,21.42
2022-09-05T14:47:06.150Z,21.10
2022-09-05T14:49:45.562Z,21.20
2022-09-05T14:52:24.420Z,21.17
2022-09-05T15:02:42.810Z,21.01
2022-09-05T15:02:57.902Z,21.02
2022-09-05T15:06:35.561Z,21.41
2022-09-05T15:11:25.521Z,21.54
2022-09-05T15:11:52.281Z,21.31
2022-09-05T15:14:41.527Z,21.04
2022-09-05T15:17:08.031Z,20.88
2022-09-05T15:20:06.865Z,21.02
2022-09-05T15:22:36.583Z,21.25
2022-09-05T15:25:16.656Z,21.18
2022-09-05T15:27:45.099Z,21.20
2022-09-05T15:30:35.870Z,21.15
2022-09-05T15:33:25.650Z,21.23
2022-09-05T15:35:53.013Z,21.07
2022-09-05T15:38:22.527Z,20.78
2022-09-05T15:41:21.043Z,20.71
2022-09-05T15:44:14.802Z,20.55
2022-09-05T15:47:03.283Z,20.46
2022-09-05T15:49:38.051Z,20.34
2022-09-05T15:52:16.471Z,20.24
2022-09-05T15:54:49.803Z,20.29
2022-09-05T15:57:21.280Z,20.50
2022-09-05T15:59:52.960Z,20.64
2022-09-05T16:02:25.985Z,20.29
2022-09-05T16:10:27.569Z,20.09
2022-09-05T16:10:38.258Z,19.93
2022-09-05T16:11:04.465Z,19.92
2022-09-05T16:13:46.327Z,19.98
2022-09-05T16:23:19.046Z,19.80
2022-09-05T16:23:23.941Z,19.81
2022-09-05T16:23:26.781Z,19.79
2022-09-05T16:25:00.184Z,19.71
2022-09-05T16:28:03.793Z,19.68
2022-09-05T16:30:34.896Z,19.63
2022-09-05T16:33:24.219Z,19.41
2022-09-05T16:36:01.757Z,19.33
2022-09-05T16:38:49.164Z,19.33
2022-09-05T16:41:26.846Z,19.30
2022-09-05T16:43:56.980Z,19.38
2022-09-05T16:47:03.885Z,19.27
2022-09-05T16:49:42.484Z,19.33
2022-09-05T16:52:13.510Z,19.24
2022-09-05T16:55:29.219Z,19.13
2022-09-05T16:58:14.490Z,18.96
2022-09-05T17:00:48.172Z,18.99
2022-09-05T17:03:28.271Z,18.84
2022-09-05T17:06:05.519Z,18.81
2022-09-05T17:08:33.192Z,18.74
2022-09-05T17:11:03.579Z,18.66
2022-09-05T17:13:52.794Z,18.70
2022-09-05T17:16:28.138Z,18.61
2022-09-05T17:18:59.407Z,18.57
2022-09-05T17:22:35.829Z,18.41
2022-09-05T17:29:19.512Z,18.34
2022-09-05T17:29:34.136Z,18.30
2022-09-05T17:32:53.499Z,18.17
2022-09-05T17:35:42.124Z,18.15
2022-09-05T17:38:30.123Z,18.12
2022-09-05T17:41:24.825Z,17.95
2022-09-05T17:43:58.485Z,17.88
2022-09-05T17:46:28.853Z,17.87
2022-09-05T17:49:18.846Z,17.87
2022-09-05T17:51:50.988Z,17.78
2022-09-05T17:54:26.503Z,17.79
2022-09-05T17:56:53.361Z,17.79
2022-09-05T17:59:19.804Z,17.71
2022-09-05T18:02:04.652Z,17.72
2022-09-05T18:04:43.085Z,17.64
2022-09-05T18:07:31.010Z,17.59
2022-09-05T18:10:15.377Z,17.53
2022-09-05T18:15:35.729Z,17.52
2022-09-05T18:18:05.314Z,17.53
2022-09-05T18:20:43.518Z,17.47
2022-09-05T18:23:39.105Z,17.50
2022-09-05T18:26:24.472Z,17.50
2022-09-05T18:29:01.331Z,17.50
2022-09-05T18:31:41.839Z,17.44
2022-09-05T18:34:15.666Z,17.35
2022-09-05T18:36:53.694Z,17.38
2022-09-05T18:39:25.535Z,17.37
2022-09-05T18:42:33.296Z,17.34
2022-09-05T18:44:59.764Z,17.26
2022-09-05T18:47:33.213Z,17.22
2022-09-05T18:50:24.988Z,17.25
2022-09-05T18:52:50.261Z,17.11
2022-09-05T18:56:14.248Z,17.06
2022-09-05T18:58:26.583Z,17.08
2022-09-05T19:00:53.987Z,16.99
2022-09-05T19:03:25.242Z,16.88
2022-09-05T19:05:55.549Z,16.90
2022-09-05T19:09:06.851Z,16.76
2022-09-05T19:11:38.208Z,16.79
2022-09-05T19:14:38.588Z,16.82
2022-09-05T19:17:15.085Z,16.86
2022-09-05T19:20:33.051Z,16.87
2022-09-05T19:23:11.003Z,16.81
2022-09-05T19:25:45.081Z,16.72
2022-09-05T19:36:50.636Z,16.71
2022-09-05T19:36:52.295Z,16.68
2022-09-05T19:36:54.023Z,16.70
2022-09-05T19:42:04.580Z,16.79
2022-09-05T19:47:34.472Z,16.64
2022-09-05T19:47:44.913Z,16.62
2022-09-05T19:50:54.779Z,16.62
2022-09-05T19:53:21.839Z,16.65
2022-09-05T19:55:49.714Z,16.61
2022-09-05T19:58:20.809Z,16.62
2022-09-05T20:01:01.438Z,16.71
2022-09-05T20:03:28.775Z,16.66
2022-09-05T20:06:05.336Z,16.72
2022-09-05T20:08:35.155Z,16.62
2022-09-05T20:11:03.919Z,16.56
2022-09-05T20:13:30.986Z,16.43
2022-09-05T20:15:57.529Z,16.50
2022-09-05T20:18:44.197Z,16.49
2022-09-05T20:21:28.535Z,16.46
2022-09-05T20:23:56.461Z,16.40
2022-09-05T20:26:28.531Z,16.40
2022-09-05T20:29:01.259Z,16.43
2022-09-05T20:31:32.962Z,16.37
2022-09-05T20:34:03.539Z,16.27
2022-09-05T20:41:11.613Z,16.29
2022-09-05T20:43:16.383Z,16.50
2022-09-05T20:43:30.343Z,16.42
2022-09-05T20:45:44.444Z,16.41
2022-09-05T20:54:07.013Z,16.43
2022-09-05T20:54:12.793Z,16.41
2022-09-05T20:54:17.369Z,16.37
2022-09-05T20:56:48.203Z,16.43
2022-09-05T20:59:36.187Z,16.43
2022-09-05T21:02:30.007Z,16.44
2022-09-05T21:05:21.280Z,16.52
2022-09-05T21:08:07.623Z,16.32
2022-09-05T21:10:55.569Z,16.36
2022-09-05T21:13:52.232Z,16.37
2022-09-05T21:16:22.193Z,16.42
2022-09-05T21:18:50.710Z,16.36
2022-09-05T21:21:30.224Z,16.41
2022-09-05T21:24:17.978Z,16.34
2022-09-05T21:26:49.158Z,16.33
2022-09-05T21:29:22.677Z,16.40
2022-09-05T21:31:54.331Z,16.32
2022-09-05T21:34:25.406Z,16.28
2022-09-05T21:37:03.916Z,16.29
2022-09-05T21:39:36.843Z,16.25
2022-09-05T21:42:59.853Z,16.26
2022-09-05T21:47:38.805Z,16.25
2022-09-05T21:47:52.531Z,16.29
2022-09-05T21:50:30.654Z,16.39
2022-09-05T21:54:54.693Z,16.41
2022-09-05T21:59:22.459Z,16.37
2022-09-05T21:59:36.926Z,16.39
2022-09-05T22:01:48.890Z,16.41
2022-09-05T22:04:13.673Z,16.43
2022-09-05T22:06:40.270Z,16.45
2022-09-05T22:09:13.103Z,16.51
2022-09-05T22:11:40.624Z,16.56
2022-09-05T22:14:08.940Z,16.51
2022-09-05T22:16:38.452Z,16.55
2022-09-05T22:19:22.326Z,16.48
2022-09-05T22:21:54.516Z,16.58
2022-09-05T22:24:21.671Z,16.55
2022-09-05T22:27:11.325Z,16.53
2022-09-05T22:29:39.957Z,16.54
2022-09-05T22:32:07.030Z,16.47
2022-09-05T22:34:33.567Z,16.50
2022-09-05T22:37:00.312Z,16.47
2022-09-05T22:39:36.570Z,16.43
2022-09-05T22:42:10.035Z,16.39
2022-09-05T22:44:37.046Z,16.37
2022-09-05T22:47:05.539Z,16.34
2022-09-05T22:49:32.162Z,16.28
2022-09-05T22:51:58.663Z,16.24
2022-09-05T22:54:25.169Z,16.25
2022-09-05T22:56:51.747Z,16.23
2022-09-05T22:59:18.235Z,16.19
2022-09-05T23:01:44.813Z,16.15
2022-09-05T23:04:11.420Z,16.17
2022-09-05T23:06:38.232Z,16.07
2022-09-05T23:09:04.748Z,16.13
2022-09-05T23:11:31.272Z,16.06
2022-09-05T23:13:57.775Z,16.05
2022-09-05T23:16:24.346Z,15.98
2022-09-05T23:18:50.833Z,15.97
2022-09-05T23:21:17.399Z,15.93
2022-09-05T23:23:43.988Z,15.87
2022-09-05T23:26:12.091Z,15.81
2022-09-05T23:28:43.071Z,15.81
2022-09-05T23:31:11.342Z,15.77
2022-09-05T23:33:40.366Z,15.79
2022-09-05T23:36:08.966Z,15.72
2022-09-05T23:38:35.714Z,15.77
2022-09-05T23:41:09.227Z,15.81
2022-09-05T23:43:35.734Z,15.77
2022-09-05T23:46:03.007Z,15.77
2022-09-05T23:48:29.595Z,15.82
2022-09-05T23:50:56.324Z,15.76
2022-09-05T23:53:23.364Z,15.76
2022-09-05T23:55:49.928Z,15.78
2022-09-05T23:58:16.791Z,15.79
